Time;durP1;ratioP1;P1;durP2;ratioP2;P2;SDS_P1;SDS_P2;PMS_P1;PMS_P2;Temp;Humidity;BMP_temperature;BMP_pressure;BME280_temperature;BME280_humidity;BME280_pressure;Samples;Min_cycle;Max_cycle;Signal;HPM_P1;HPM_P2
2022/12/14 00:00:51;;;;;;;11.70;4.43;;;;;;;;;;7389527;19;20007;-71
2022/12/14 00:03:17;;;;;;;5.85;3.72;;;;;;;;;;7390304;19;19994;-71
2022/12/14 00:05:43;;;;;;;13.65;4.30;;;;;;;;;;7388369;19;20026;-70
2022/12/14 00:08:10;;;;;;;11.63;3.67;;;;;;;;;;7388043;19;20441;-71
2022/12/14 00:10:36;;;;;;;10.77;4.93;;;;;;;;;;7389435;19;20002;-71
2022/12/14 00:13:02;;;;;;;11.77;4.53;;;;;;;;;;7388527;19;19998;-71
2022/12/14 00:15:27;;;;;;;8.55;3.42;;;;;;;;;;7389211;19;20002;-70
2022/12/14 00:17:53;;;;;;;12.35;5.25;;;;;;;;;;7390564;19;19999;-70
2022/12/14 00:20:18;;;;;;;12.57;4.07;;;;;;;;;;7388953;19;20011;-70
2022/12/14 00:22:43;;;;;;;10.05;2.97;;;;;;;;;;7387849;19;19998;-70
2022/12/14 00:25:09;;;;;;;6.10;2.97;;;;;;;;;;7386503;19;19998;-70
2022/12/14 00:27:34;;;;;;;5.95;2.97;;;;;;;;;;7390252;19;20337;-71
2022/12/14 00:30:00;;;;;;;6.78;3.58;;;;;;;;;;7388485;19;20008;-70
2022/12/14 00:32:25;;;;;;;7.40;4.22;;;;;;;;;;7388320;19;19995;-71
2022/12/14 00:34:51;;;;;;;5.35;3.72;;;;;;;;;;7387905;19;19991;-70
2022/12/14 00:37:16;;;;;;;10.55;4.30;;;;;;;;;;7388387;19;20392;-70
2022/12/14 00:39:41;;;;;;;5.55;3.30;;;;;;;;;;7388284;19;19991;-69
2022/12/14 00:42:07;;;;;;;4.03;2.83;;;;;;;;;;7388574;19;19995;-70
2022/12/14 00:44:32;;;;;;;8.02;4.78;;;;;;;;;;7387819;19;19998;-70
2022/12/14 00:46:58;;;;;;;5.43;3.00;;;;;;;;;;7387345;19;19998;-70
2022/12/14 00:49:23;;;;;;;6.57;3.03;;;;;;;;;;7388090;19;20019;-71
2022/12/14 00:51:49;;;;;;;6.25;3.60;;;;;;;;;;7387997;19;20001;-71
2022/12/14 00:54:14;;;;;;;5.78;2.70;;;;;;;;;;7385927;19;20378;-71
2022/12/14 00:56:39;;;;;;;6.63;3.58;;;;;;;;;;7387574;19;20355;-71
2022/12/14 00:59:05;;;;;;;8.00;3.35;;;;;;;;;;7387007;19;20014;-71
2022/12/14 01:01:30;;;;;;;6.57;2.90;;;;;;;;;;7386894;19;19994;-71
2022/12/14 01:06:40;;;;;;;5.18;2.53;;;;;;;;;;7384010;19;20457;-72
2022/12/14 01:09:05;;;;;;;12.02;3.78;;;;;;;;;;7386331;19;19999;-71
2022/12/14 01:11:30;;;;;;;6.65;3.65;;;;;;;;;;7386080;19;19994;-71
2022/12/14 01:13:56;;;;;;;8.20;4.00;;;;;;;;;;7383990;19;19994;-71
2022/12/14 01:16:21;;;;;;;6.30;2.78;;;;;;;;;;7386746;19;20464;-70
2022/12/14 01:18:46;;;;;;;8.20;3.92;;;;;;;;;;7381599;19;20455;-71
2022/12/14 01:21:20;;;;;;;8.07;3.33;;;;;;;;;;7383339;19;20540;-70
2022/12/14 01:23:47;;;;;;;6.10;3.30;;;;;;;;;;7383276;19;19998;-71
2022/12/14 01:26:14;;;;;;;9.98;2.22;;;;;;;;;;7384911;19;20074;-71
2022/12/14 01:28:40;;;;;;;3.28;2.25;;;;;;;;;;7387404;19;20032;-70
2022/12/14 01:31:11;;;;;;;7.10;3.28;;;;;;;;;;7392236;19;20538;-70
2022/12/14 01:33:37;;;;;;;8.45;3.80;;;;;;;;;;7391175;19;20016;-71
2022/12/14 01:36:11;;;;;;;12.45;5.25;;;;;;;;;;7390109;19;19994;-71
2022/12/14 01:38:37;;;;;;;10.63;3.85;;;;;;;;;;7389989;19;20007;-70
2022/12/14 01:41:03;;;;;;;5.53;3.05;;;;;;;;;;7388713;19;20023;-71
2022/12/14 01:43:44;;;;;;;7.53;3.30;;;;;;;;;;7390612;19;20548;-71
2022/12/14 01:46:10;;;;;;;9.23;3.13;;;;;;;;;;7390085;19;19999;-70
2022/12/14 01:48:35;;;;;;;4.28;2.70;;;;;;;;;;7389522;19;20073;-70
2022/12/14 01:51:01;;;;;;;6.93;3.70;;;;;;;;;;7391111;19;20098;-70
2022/12/14 01:53:26;;;;;;;7.45;2.85;;;;;;;;;;7390260;19;20019;-70
2022/12/14 01:55:54;;;;;;;4.82;2.97;;;;;;;;;;7391073;19;19994;-70
2022/12/14 01:58:24;;;;;;;4.80;2.47;;;;;;;;;;7250072;19;2746737;-70
2022/12/14 02:00:53;;;;;;;4.93;2.70;;;;;;;;;;7398048;19;20002;-70
2022/12/14 02:03:19;;;;;;;3.58;2.38;;;;;;;;;;7393042;19;20481;-69
2022/12/14 02:05:52;;;;;;;4.85;2.92;;;;;;;;;;7392426;19;20006;-70
2022/12/14 02:08:19;;;;;;;8.15;3.90;;;;;;;;;;7392176;19;20480;-71
2022/12/14 02:10:46;;;;;;;10.10;4.07;;;;;;;;;;7393369;19;20005;-71
2022/12/14 02:13:26;;;;;;;4.55;2.63;;;;;;;;;;7392809;19;20009;-71
2022/12/14 02:15:51;;;;;;;7.40;3.55;;;;;;;;;;7393870;19;20013;-70
2022/12/14 02:18:20;;;;;;;5.28;2.53;;;;;;;;;;7389158;19;20010;-72
2022/12/14 02:21:00;;;;;;;6.78;3.35;;;;;;;;;;7393247;19;20009;-70
2022/12/14 02:23:47;;;;;;;5.23;3.43;;;;;;;;;;7392313;19;20409;-70
2022/12/14 02:26:46;;;;;;;5.13;2.47;;;;;;;;;;7391316;19;19998;-71
2022/12/14 02:29:37;;;;;;;10.50;3.60;;;;;;;;;;7396614;19;20427;-70
2022/12/14 02:32:44;;;;;;;8.75;3.50;;;;;;;;;;7392823;19;20472;-70
2022/12/14 02:35:47;;;;;;;5.43;2.70;;;;;;;;;;7392289;19;20003;-69
2022/12/14 02:38:21;;;;;;;10.20;2.47;;;;;;;;;;7388044;19;20087;-69
2022/12/14 02:40:56;;;;;;;6.28;2.85;;;;;;;;;;7392182;19;20005;-69
2022/12/14 02:43:52;;;;;;;6.00;3.05;;;;;;;;;;7391610;19;19998;-70
2022/12/14 02:46:37;;;;;;;5.07;2.45;;;;;;;;;;7388179;19;20002;-70
2022/12/14 02:49:14;;;;;;;4.05;2.58;;;;;;;;;;7391593;19;20031;-71
2022/12/14 02:51:53;;;;;;;3.35;2.17;;;;;;;;;;7392368;19;20003;-71
2022/12/14 02:54:26;;;;;;;4.82;2.60;;;;;;;;;;7391731;19;20002;-70
2022/12/14 02:57:07;;;;;;;4.50;2.63;;;;;;;;;;7391283;19;20136;-71
2022/12/14 02:59:33;;;;;;;5.05;3.22;;;;;;;;;;7390799;19;20119;-71
2022/12/14 03:02:01;;;;;;;9.18;3.58;;;;;;;;;;7391745;19;20006;-69
2022/12/14 03:04:27;;;;;;;10.18;3.08;;;;;;;;;;7391211;19;19995;-71
2022/12/14 03:06:58;;;;;;;5.30;2.45;;;;;;;;;;7389849;19;20003;-70
2022/12/14 03:09:26;;;;;;;3.45;2.15;;;;;;;;;;7391600;19;20107;-70
2022/12/14 03:11:55;;;;;;;7.15;3.53;;;;;;;;;;7391510;19;20003;-71
2022/12/14 03:14:34;;;;;;;7.93;3.53;;;;;;;;;;7391060;19;20451;-70
2022/12/14 03:17:16;;;;;;;3.95;2.22;;;;;;;;;;7391402;19;20002;-71
2022/12/14 03:19:51;;;;;;;6.47;3.33;;;;;;;;;;7392176;19;20362;-70
2022/12/14 03:22:25;;;;;;;5.50;3.05;;;;;;;;;;7391487;19;20026;-70
2022/12/14 03:24:57;;;;;;;7.07;3.80;;;;;;;;;;7390961;19;20010;-72
2022/12/14 03:27:33;;;;;;;7.00;2.97;;;;;;;;;;7390383;19;20103;-71
2022/12/14 03:30:04;;;;;;;6.65;3.83;;;;;;;;;;7391456;19;20452;-70
2022/12/14 03:32:32;;;;;;;6.32;3.38;;;;;;;;;;7391399;19;20014;-71
2022/12/14 03:35:11;;;;;;;8.80;3.08;;;;;;;;;;7389082;19;19998;-72
2022/12/14 03:37:58;;;;;;;4.97;2.55;;;;;;;;;;7389784;19;20019;-71
2022/12/14 03:40:33;;;;;;;6.00;3.92;;;;;;;;;;7390789;19;20006;-70
2022/12/14 03:43:09;;;;;;;4.70;2.63;;;;;;;;;;7388326;19;20014;-70
2022/12/14 03:46:11;;;;;;;15.00;3.20;;;;;;;;;;7389610;19;20027;-71
2022/12/14 03:48:49;;;;;;;6.00;2.95;;;;;;;;;;7386389;19;20002;-70
2022/12/14 03:51:36;;;;;;;5.15;2.95;;;;;;;;;;7388592;19;20003;-70
2022/12/14 03:54:25;;;;;;;5.78;2.95;;;;;;;;;;7389621;19;20006;-71
2022/12/14 03:57:19;;;;;;;4.90;2.35;;;;;;;;;;7389207;19;20018;-71
2022/12/14 03:59:53;;;;;;;6.80;3.15;;;;;;;;;;7389209;19;20058;-71
2022/12/14 04:02:29;;;;;;;7.97;3.30;;;;;;;;;;7390306;19;20027;-71
2022/12/14 04:05:14;;;;;;;6.35;3.08;;;;;;;;;;7387051;19;20037;-71
2022/12/14 04:08:10;;;;;;;5.47;3.30;;;;;;;;;;7392022;19;20500;-71
2022/12/14 04:19:15;;;;;;;6.07;3.38;;;;;;;;;;7390497;19;20013;-71
2022/12/14 04:21:45;;;;;;;11.63;3.40;;;;;;;;;;7390796;19;20006;-71
2022/12/14 04:27:18;;;;;;;5.68;3.25;;;;;;;;;;7386722;19;20116;-70
2022/12/14 04:29:56;;;;;;;5.75;3.85;;;;;;;;;;7388767;19;20017;-69
2022/12/14 04:32:45;;;;;;;6.95;3.58;;;;;;;;;;7384440;19;20369;-71
2022/12/14 04:35:14;;;;;;;12.02;2.92;;;;;;;;;;7388332;19;20080;-71
2022/12/14 04:37:43;;;;;;;5.28;2.47;;;;;;;;;;7387441;19;20005;-71
2022/12/14 04:40:13;;;;;;;7.93;4.22;;;;;;;;;;7388683;19;20375;-71
2022/12/14 04:42:51;;;;;;;8.18;4.03;;;;;;;;;;7387475;19;20370;-71
2022/12/14 04:45:23;;;;;;;7.10;3.20;;;;;;;;;;7388590;19;20115;-71
2022/12/14 04:47:58;;;;;;;4.43;2.70;;;;;;;;;;7386779;19;20026;-71
2022/12/14 04:50:33;;;;;;;5.65;3.15;;;;;;;;;;7387866;19;20504;-72
2022/12/14 04:53:15;;;;;;;8.98;3.45;;;;;;;;;;7387178;19;20353;-70
2022/12/14 04:55:45;;;;;;;7.35;3.10;;;;;;;;;;7386489;19;20003;-71
2022/12/14 04:58:30;;;;;;;5.85;2.95;;;;;;;;;;7386985;19;20482;-70
2022/12/14 05:01:14;;;;;;;6.53;3.40;;;;;;;;;;7387350;19;20009;-71
2022/12/14 05:04:08;;;;;;;8.60;3.05;;;;;;;;;;7387326;19;20006;-71
2022/12/14 05:06:38;;;;;;;7.65;3.45;;;;;;;;;;7386501;19;20038;-71
2022/12/14 05:09:08;;;;;;;5.13;2.70;;;;;;;;;;7387741;19;20491;-71
2022/12/14 05:11:37;;;;;;;9.70;3.75;;;;;;;;;;7387345;19;20016;-70
2022/12/14 05:14:07;;;;;;;7.93;4.25;;;;;;;;;;7385420;19;20003;-71
2022/12/14 05:16:35;;;;;;;6.85;4.00;;;;;;;;;;7387816;19;20017;-70
2022/12/14 05:19:00;;;;;;;7.97;3.42;;;;;;;;;;7387934;19;20424;-70
2022/12/14 05:24:09;;;;;;;11.80;4.20;;;;;;;;;;7386689;19;20020;-71
2022/12/14 05:26:35;;;;;;;6.10;3.22;;;;;;;;;;7385764;19;20488;-70
2022/12/14 05:29:10;;;;;;;5.72;3.45;;;;;;;;;;7386252;19;19999;-70
2022/12/14 05:31:35;;;;;;;8.85;3.97;;;;;;;;;;7382961;19;20015;-70
2022/12/14 05:34:00;;;;;;;8.55;4.68;;;;;;;;;;7380355;19;20002;-71
2022/12/14 05:36:26;;;;;;;9.20;4.53;;;;;;;;;;7382559;19;19998;-71
2022/12/14 05:38:51;;;;;;;5.88;2.78;;;;;;;;;;7382465;19;19994;-69
2022/12/14 05:41:16;;;;;;;7.80;3.40;;;;;;;;;;7382494;19;20010;-70
2022/12/14 05:43:42;;;;;;;7.78;3.47;;;;;;;;;;7382763;19;19999;-71
2022/12/14 05:46:10;;;;;;;9.07;4.53;;;;;;;;;;7382411;19;20790;-69
2022/12/14 05:48:35;;;;;;;8.73;3.47;;;;;;;;;;7384456;19;20011;-71
2022/12/14 05:51:09;;;;;;;7.07;3.20;;;;;;;;;;7386709;19;19999;-71
2022/12/14 05:53:35;;;;;;;6.70;3.38;;;;;;;;;;7384374;19;20010;-71
2022/12/14 05:56:01;;;;;;;4.40;2.72;;;;;;;;;;7380058;19;20040;-70
2022/12/14 05:58:26;;;;;;;10.02;4.28;;;;;;;;;;7387137;19;20002;-71
2022/12/14 06:00:51;;;;;;;8.23;3.40;;;;;;;;;;7391091;19;20002;-73
2022/12/14 06:03:17;;;;;;;5.40;2.88;;;;;;;;;;7386306;19;20520;-70
2022/12/14 06:05:42;;;;;;;6.72;3.10;;;;;;;;;;7387723;19;20528;-70
2022/12/14 06:08:07;;;;;;;6.68;3.60;;;;;;;;;;7387096;19;19998;-70
2022/12/14 06:10:33;;;;;;;7.10;3.55;;;;;;;;;;7389362;19;20433;-70
2022/12/14 06:12:58;;;;;;;11.15;4.20;;;;;;;;;;7386396;19;20128;-70
2022/12/14 06:15:24;;;;;;;6.13;3.35;;;;;;;;;;7396190;19;20058;-71
2022/12/14 06:17:49;;;;;;;8.75;3.92;;;;;;;;;;7393554;19;20555;-69
2022/12/14 06:20:14;;;;;;;8.45;3.80;;;;;;;;;;7396461;19;20014;-71
2022/12/14 06:22:40;;;;;;;8.98;4.57;;;;;;;;;;7391415;19;20003;-70
2022/12/14 06:25:06;;;;;;;9.48;4.68;;;;;;;;;;7394181;19;20381;-71
2022/12/14 06:27:31;;;;;;;9.63;4.75;;;;;;;;;;7393899;19;20071;-69
2022/12/14 06:29:57;;;;;;;10.35;3.97;;;;;;;;;;7396139;19;19998;-71
2022/12/14 06:32:22;;;;;;;9.10;3.95;;;;;;;;;;7395163;19;19999;-71
2022/12/14 06:34:47;;;;;;;6.90;3.75;;;;;;;;;;7396096;19;20358;-71
2022/12/14 06:37:13;;;;;;;9.43;4.25;;;;;;;;;;7393031;19;20520;-70
2022/12/14 06:39:38;;;;;;;8.45;4.18;;;;;;;;;;7394922;19;20118;-70
2022/12/14 06:42:04;;;;;;;9.10;4.70;;;;;;;;;;7394595;19;19995;-67
2022/12/14 06:44:30;;;;;;;6.93;3.72;;;;;;;;;;7395925;19;20026;-67
2022/12/14 06:46:56;;;;;;;9.13;4.22;;;;;;;;;;7392708;19;20003;-67
2022/12/14 06:49:21;;;;;;;10.63;5.30;;;;;;;;;;7396103;19;20006;-67
2022/12/14 06:51:47;;;;;;;8.18;3.90;;;;;;;;;;7395058;19;20003;-69
2022/12/14 06:54:14;;;;;;;8.43;5.18;;;;;;;;;;7394524;19;20037;-70
2022/12/14 06:56:41;;;;;;;7.47;4.13;;;;;;;;;;7390359;19;20002;-70
2022/12/14 06:59:07;;;;;;;7.68;3.83;;;;;;;;;;7392702;19;20497;-70
2022/12/14 07:01:34;;;;;;;10.27;4.10;;;;;;;;;;7393348;19;20400;-71
2022/12/14 07:04:00;;;;;;;8.57;4.30;;;;;;;;;;7394363;19;20002;-71
2022/12/14 07:06:27;;;;;;;5.05;2.65;;;;;;;;;;7393972;19;19999;-71
2022/12/14 07:08:54;;;;;;;7.72;3.85;;;;;;;;;;7394942;19;20444;-71
2022/12/14 07:11:19;;;;;;;12.60;4.78;;;;;;;;;;7393551;19;20365;-71
2022/12/14 07:13:45;;;;;;;10.38;4.40;;;;;;;;;;7393565;19;20010;-71
2022/12/14 07:16:19;;;;;;;8.75;4.80;;;;;;;;;;7394663;19;19990;-71
2022/12/14 07:18:45;;;;;;;8.43;4.05;;;;;;;;;;7392227;19;20001;-70
2022/12/14 07:21:12;;;;;;;10.75;4.57;;;;;;;;;;7393933;19;19998;-69
2022/12/14 07:23:39;;;;;;;9.10;3.60;;;;;;;;;;7394111;19;19998;-70
2022/12/14 07:26:06;;;;;;;8.98;4.85;;;;;;;;;;7390186;19;20007;-70
2022/12/14 07:28:32;;;;;;;11.45;4.65;;;;;;;;;;7391107;19;20360;-71
2022/12/14 07:30:58;;;;;;;12.60;5.90;;;;;;;;;;7394184;19;19998;-71
2022/12/14 07:33:25;;;;;;;11.98;5.95;;;;;;;;;;7393158;19;20056;-71
2022/12/14 07:35:51;;;;;;;8.02;4.22;;;;;;;;;;7393665;19;20488;-71
2022/12/14 07:38:17;;;;;;;10.27;4.50;;;;;;;;;;7390014;19;20071;-70
2022/12/14 07:40:43;;;;;;;10.93;5.82;;;;;;;;;;7386239;19;20031;-67
2022/12/14 07:43:09;;;;;;;10.15;5.28;;;;;;;;;;7388757;19;20066;-67
2022/12/14 07:45:34;;;;;;;12.77;5.22;;;;;;;;;;7389915;19;20007;-68
2022/12/14 07:48:00;;;;;;;9.00;4.55;;;;;;;;;;7388787;19;20021;-69
2022/12/14 07:50:25;;;;;;;14.40;5.22;;;;;;;;;;7386953;19;20034;-68
2022/12/14 07:52:51;;;;;;;12.10;4.82;;;;;;;;;;7387876;19;20460;-68
2022/12/14 07:55:16;;;;;;;13.13;5.82;;;;;;;;;;7387485;19;19995;-68
2022/12/14 07:57:42;;;;;;;15.48;6.53;;;;;;;;;;7391011;19;19990;-67
2022/12/14 08:00:08;;;;;;;12.88;6.43;;;;;;;;;;7393759;19;20047;-68
2022/12/14 08:02:33;;;;;;;18.38;5.75;;;;;;;;;;7390866;19;20067;-68
2022/12/14 08:04:58;;;;;;;11.95;5.25;;;;;;;;;;7390863;19;19999;-68
2022/12/14 08:07:24;;;;;;;14.15;5.68;;;;;;;;;;7389231;19;20005;-67
2022/12/14 08:09:49;;;;;;;12.00;6.53;;;;;;;;;;7390829;19;20404;-67
2022/12/14 08:12:14;;;;;;;9.85;5.28;;;;;;;;;;7391233;19;19994;-68
2022/12/14 08:14:40;;;;;;;11.02;5.85;;;;;;;;;;7389795;19;20062;-68
2022/12/14 08:17:05;;;;;;;12.95;5.40;;;;;;;;;;7390838;19;20393;-67
2022/12/14 08:19:30;;;;;;;7.97;4.30;;;;;;;;;;7392209;19;20018;-68
2022/12/14 08:21:56;;;;;;;13.98;6.03;;;;;;;;;;7392023;19;21098;-69
2022/12/14 08:24:21;;;;;;;11.63;5.65;;;;;;;;;;7391881;19;19999;-68
2022/12/14 08:26:46;;;;;;;9.68;4.72;;;;;;;;;;7388515;19;20002;-66
2022/12/14 08:29:13;;;;;;;12.20;6.25;;;;;;;;;;7392254;19;20006;-67
2022/12/14 08:31:39;;;;;;;14.90;5.93;;;;;;;;;;7389022;19;20372;-69
2022/12/14 08:34:04;;;;;;;13.63;6.15;;;;;;;;;;7391592;19;19994;-67
2022/12/14 08:36:32;;;;;;;11.20;5.25;;;;;;;;;;7390958;19;20001;-69
2022/12/14 08:39:00;;;;;;;17.55;6.47;;;;;;;;;;7390450;19;20106;-67
2022/12/14 08:41:26;;;;;;;20.45;5.22;;;;;;;;;;7390007;19;20031;-68
2022/12/14 08:43:54;;;;;;;15.32;5.00;;;;;;;;;;7392029;19;20004;-69
2022/12/14 08:46:20;;;;;;;10.85;6.05;;;;;;;;;;7387725;19;19998;-68
2022/12/14 08:48:46;;;;;;;15.85;7.65;;;;;;;;;;7387685;19;20001;-69
2022/12/14 08:51:11;;;;;;;18.05;6.97;;;;;;;;;;7389971;19;20006;-67
2022/12/14 08:53:37;;;;;;;14.05;6.20;;;;;;;;;;7390940;19;20015;-68
2022/12/14 08:56:09;;;;;;;12.30;5.47;;;;;;;;;;7392271;19;20484;-70
2022/12/14 08:58:35;;;;;;;12.48;5.05;;;;;;;;;;7388688;19;20018;-65
2022/12/14 09:01:06;;;;;;;10.63;5.28;;;;;;;;;;7389917;19;20030;-64
2022/12/14 09:03:32;;;;;;;9.18;5.25;;;;;;;;;;7391639;19;20397;-64
2022/12/14 09:06:05;;;;;;;12.63;4.47;;;;;;;;;;7394227;19;20034;-64
2022/12/14 09:08:31;;;;;;;16.98;5.53;;;;;;;;;;7386667;19;20600;-65
2022/12/14 09:10:57;;;;;;;21.10;5.95;;;;;;;;;;7390479;19;19999;-65
2022/12/14 09:13:23;;;;;;;13.18;6.40;;;;;;;;;;7391765;19;20003;-65
2022/12/14 09:15:57;;;;;;;11.05;5.22;;;;;;;;;;7391809;19;20002;-65
2022/12/14 09:18:22;;;;;;;7.70;3.85;;;;;;;;;;7387728;19;20348;-65
2022/12/14 09:20:47;;;;;;;7.85;4.47;;;;;;;;;;7390500;19;20009;-65
2022/12/14 09:23:12;;;;;;;13.85;4.63;;;;;;;;;;7389577;19;20390;-65
2022/12/14 09:25:38;;;;;;;15.30;4.90;;;;;;;;;;7389517;19;20023;-65
2022/12/14 09:28:03;;;;;;;10.07;5.63;;;;;;;;;;7390683;19;20005;-65
2022/12/14 09:30:29;;;;;;;13.02;5.50;;;;;;;;;;7387032;19;20002;-65
2022/12/14 09:32:54;;;;;;;11.90;4.82;;;;;;;;;;7390059;19;20002;-65
2022/12/14 09:35:19;;;;;;;10.88;5.55;;;;;;;;;;7390779;19;20010;-65
2022/12/14 09:37:45;;;;;;;11.45;5.00;;;;;;;;;;7390599;19;20014;-65
2022/12/14 09:40:12;;;;;;;13.82;5.50;;;;;;;;;;7388176;19;20482;-65
2022/12/14 09:42:52;;;;;;;13.30;5.32;;;;;;;;;;7389062;19;20389;-65
2022/12/14 09:45:47;;;;;;;13.40;5.70;;;;;;;;;;7389807;19;20401;-65
2022/12/14 09:48:19;;;;;;;13.63;6.63;;;;;;;;;;7389682;19;19999;-65
2022/12/14 09:50:49;;;;;;;14.07;6.18;;;;;;;;;;7398346;19;19991;-65
2022/12/14 09:53:15;;;;;;;9.95;5.47;;;;;;;;;;7396900;19;20005;-68
2022/12/14 09:55:48;;;;;;;13.63;5.43;;;;;;;;;;7398431;19;20400;-65
2022/12/14 09:58:20;;;;;;;12.20;5.43;;;;;;;;;;7396716;19;20070;-65
2022/12/14 10:01:02;;;;;;;8.90;5.60;;;;;;;;;;7396361;19;20001;-65
2022/12/14 10:03:47;;;;;;;7.43;3.85;;;;;;;;;;7398305;19;20006;-65
2022/12/14 10:06:33;;;;;;;20.52;7.97;;;;;;;;;;7394213;19;20348;-65
2022/12/14 10:09:10;;;;;;;20.48;7.55;;;;;;;;;;7393971;19;20078;-65
2022/12/14 10:12:04;;;;;;;9.85;5.03;;;;;;;;;;7397161;19;19999;-65
2022/12/14 10:14:48;;;;;;;11.60;5.47;;;;;;;;;;7392583;19;20003;-65
2022/12/14 10:17:30;;;;;;;14.32;5.25;;;;;;;;;;7395893;19;20030;-65
2022/12/14 10:20:03;;;;;;;8.85;4.18;;;;;;;;;;7397478;19;20313;-65
2022/12/14 10:22:33;;;;;;;9.88;3.83;;;;;;;;;;7394683;19;20404;-65
2022/12/14 10:25:04;;;;;;;16.63;6.40;;;;;;;;;;7394930;19;20002;-65
2022/12/14 10:27:32;;;;;;;9.13;5.15;;;;;;;;;;7393047;19;20013;-66
2022/12/14 10:30:03;;;;;;;9.35;4.80;;;;;;;;;;7395931;19;20106;-65
2022/12/14 10:32:38;;;;;;;15.07;7.05;;;;;;;;;;7395111;19;20354;-65
2022/12/14 10:35:30;;;;;;;12.23;6.75;;;;;;;;;;7395270;19;20447;-65
2022/12/14 10:38:03;;;;;;;15.05;7.03;;;;;;;;;;7394244;19;20006;-65
2022/12/14 10:40:33;;;;;;;13.15;6.10;;;;;;;;;;7394136;19;20002;-65
2022/12/14 10:43:22;;;;;;;14.05;6.50;;;;;;;;;;7370761;19;20013;-65
2022/12/14 10:46:16;;;;;;;16.40;7.07;;;;;;;;;;7395662;19;20034;-65
2022/12/14 10:48:49;;;;;;;15.98;6.72;;;;;;;;;;7392169;19;19998;-65
2022/12/14 10:51:24;;;;;;;14.52;6.95;;;;;;;;;;7395136;19;20002;-65
2022/12/14 10:54:13;;;;;;;12.95;5.65;;;;;;;;;;7395039;19;20324;-64
2022/12/14 10:56:42;;;;;;;12.05;6.05;;;;;;;;;;7394271;19;20346;-65
2022/12/14 10:59:24;;;;;;;20.70;6.18;;;;;;;;;;7393923;19;20466;-64
2022/12/14 11:01:58;;;;;;;16.13;6.57;;;;;;;;;;7395542;19;20009;-65
2022/12/14 11:04:29;;;;;;;15.50;7.30;;;;;;;;;;7387029;19;20471;-65
2022/12/14 11:07:00;;;;;;;14.15;5.35;;;;;;;;;;7385309;19;20010;-65
2022/12/14 11:09:26;;;;;;;16.80;6.22;;;;;;;;;;7387191;19;20185;-64
2022/12/14 11:12:14;;;;;;;17.70;7.55;;;;;;;;;;7387937;19;20007;-65
2022/12/14 11:15:01;;;;;;;13.73;6.68;;;;;;;;;;7387554;19;20006;-65
2022/12/14 11:17:32;;;;;;;12.75;6.40;;;;;;;;;;7391169;19;20010;-65
2022/12/14 11:20:15;;;;;;;14.20;6.78;;;;;;;;;;7391393;19;19999;-65
2022/12/14 11:22:46;;;;;;;15.32;6.38;;;;;;;;;;7389016;19;19998;-65
2022/12/14 11:25:33;;;;;;;14.32;6.28;;;;;;;;;;7390629;19;19998;-65
2022/12/14 11:28:03;;;;;;;19.80;5.97;;;;;;;;;;7390077;19;20468;-65
2022/12/14 11:30:28;;;;;;;14.68;7.28;;;;;;;;;;7389521;19;20012;-65
2022/12/14 11:32:54;;;;;;;16.10;6.93;;;;;;;;;;7390463;19;20495;-64
2022/12/14 11:35:19;;;;;;;13.25;5.85;;;;;;;;;;7388232;19;20084;-64
2022/12/14 11:37:49;;;;;;;16.63;6.28;;;;;;;;;;7389838;19;20019;-64
2022/12/14 11:40:24;;;;;;;13.23;6.55;;;;;;;;;;7391634;19;20310;-65
2022/12/14 11:42:56;;;;;;;16.95;6.72;;;;;;;;;;7394700;19;20009;-64
2022/12/14 11:45:24;;;;;;;12.68;6.22;;;;;;;;;;7388448;19;20039;-64
2022/12/14 11:48:14;;;;;;;12.55;6.15;;;;;;;;;;7393133;19;20003;-64
2022/12/14 11:50:40;;;;;;;12.27;5.18;;;;;;;;;;7393916;19;20079;-64
2022/12/14 11:53:10;;;;;;;16.17;7.22;;;;;;;;;;7388957;19;20003;-64
2022/12/14 11:55:39;;;;;;;15.57;6.13;;;;;;;;;;7392867;19;20006;-65
2022/12/14 11:58:11;;;;;;;15.90;6.88;;;;;;;;;;7392561;19;20014;-65
2022/12/14 12:00:54;;;;;;;13.07;6.25;;;;;;;;;;7394303;19;20079;-65
2022/12/14 12:03:23;;;;;;;14.55;6.32;;;;;;;;;;7391768;19;20345;-64
2022/12/14 12:05:49;;;;;;;18.83;6.97;;;;;;;;;;7390411;19;20002;-63
2022/12/14 12:08:27;;;;;;;17.88;7.18;;;;;;;;;;7392065;19;20008;-64
2022/12/14 12:10:56;;;;;;;20.23;7.18;;;;;;;;;;7387758;19;20062;-66
2022/12/14 12:13:33;;;;;;;9.23;5.55;;;;;;;;;;7389965;19;20018;-65
2022/12/14 12:16:03;;;;;;;14.52;6.47;;;;;;;;;;7392246;19;20006;-66
2022/12/14 12:18:37;;;;;;;16.50;7.75;;;;;;;;;;7388474;19;20009;-65
2022/12/14 12:21:13;;;;;;;17.08;6.50;;;;;;;;;;7390637;19;20042;-64
2022/12/14 12:24:04;;;;;;;13.15;6.63;;;;;;;;;;7391522;19;20010;-64
2022/12/14 12:26:41;;;;;;;16.63;6.75;;;;;;;;;;7388281;19;19999;-65
2022/12/14 12:29:20;;;;;;;15.13;6.20;;;;;;;;;;7382511;19;20007;-66
2022/12/14 12:32:10;;;;;;;17.85;6.22;;;;;;;;;;7391356;19;20682;-65
2022/12/14 12:34:53;;;;;;;14.52;7.00;;;;;;;;;;7391374;19;20006;-65
2022/12/14 12:37:30;;;;;;;11.07;5.25;;;;;;;;;;7391780;19;20035;-66
2022/12/14 12:40:09;;;;;;;11.70;5.05;;;;;;;;;;7391694;19;20010;-64
2022/12/14 12:42:47;;;;;;;12.23;5.25;;;;;;;;;;7392272;19;20002;-65
2022/12/14 12:45:18;;;;;;;14.57;5.78;;;;;;;;;;7391266;19;20002;-65
2022/12/14 12:47:48;;;;;;;18.58;6.45;;;;;;;;;;7390060;19;20476;-65
2022/12/14 12:50:18;;;;;;;9.38;4.95;;;;;;;;;;7390021;19;20009;-65
2022/12/14 12:53:06;;;;;;;13.55;6.07;;;;;;;;;;7388225;19;20006;-65
2022/12/14 12:55:41;;;;;;;18.20;6.07;;;;;;;;;;7391123;19;20002;-64
2022/12/14 12:58:19;;;;;;;13.50;5.18;;;;;;;;;;7390283;19;20036;-65
2022/12/14 13:00:50;;;;;;;9.15;4.85;;;;;;;;;;7389799;19;20005;-66
2022/12/14 13:03:26;;;;;;;16.73;6.57;;;;;;;;;;7388959;19;19998;-64
2022/12/14 13:05:54;;;;;;;14.68;6.10;;;;;;;;;;7389732;19;20235;-65
2022/12/14 13:08:27;;;;;;;13.02;6.65;;;;;;;;;;7390031;19;20009;-65
2022/12/14 13:10:56;;;;;;;14.55;6.03;;;;;;;;;;7392200;19;20002;-65
2022/12/14 13:13:27;;;;;;;15.07;5.97;;;;;;;;;;7388352;19;20006;-65
2022/12/14 13:16:04;;;;;;;16.55;6.55;;;;;;;;;;7390418;19;20002;-66
2022/12/14 13:18:38;;;;;;;14.85;6.10;;;;;;;;;;7388044;19;20007;-65
2022/12/14 13:21:25;;;;;;;16.73;6.60;;;;;;;;;;7391409;19;20390;-64
2022/12/14 13:23:50;;;;;;;12.90;5.90;;;;;;;;;;7386533;19;20787;-65
2022/12/14 13:26:50;;;;;;;16.83;7.65;;;;;;;;;;7388826;19;19999;-65
2022/12/14 13:29:34;;;;;;;11.05;5.45;;;;;;;;;;7389206;19;20043;-65
2022/12/14 13:32:17;;;;;;;13.20;6.10;;;;;;;;;;7390303;19;20509;-65
2022/12/14 13:35:10;;;;;;;13.27;5.43;;;;;;;;;;7389295;19;20013;-65
2022/12/14 13:38:03;;;;;;;11.90;5.75;;;;;;;;;;7387307;19;20103;-65
2022/12/14 13:40:43;;;;;;;10.60;5.25;;;;;;;;;;7385348;19;20010;-65
2022/12/14 13:43:20;;;;;;;10.10;5.33;;;;;;;;;;7386829;19;20069;-65
2022/12/14 13:45:47;;;;;;;13.95;6.55;;;;;;;;;;7388592;19;20002;-66
2022/12/14 13:48:34;;;;;;;14.77;6.80;;;;;;;;;;7388967;19;20023;-65
2022/12/14 13:51:06;;;;;;;15.48;6.32;;;;;;;;;;7387449;19;20470;-65
2022/12/14 13:53:35;;;;;;;;;;;;;;;;;;7388617;19;20076;-65
2022/12/14 13:56:01;;;;;;;8.95;5.18;;;;;;;;;;7389104;19;20414;-64
2022/12/14 13:58:35;;;;;;;16.08;5.60;;;;;;;;;;7387823;19;20010;-64
2022/12/14 14:01:06;;;;;;;12.77;6.10;;;;;;;;;;7390179;19;20031;-64
2022/12/14 14:03:31;;;;;;;10.60;6.03;;;;;;;;;;7387369;19;20007;-64
2022/12/14 14:06:07;;;;;;;13.02;5.20;;;;;;;;;;7387757;19;20001;-64
2022/12/14 14:08:34;;;;;;;12.27;5.63;;;;;;;;;;7387408;19;20528;-64
2022/12/14 14:11:22;;;;;;;18.88;6.80;;;;;;;;;;7387106;19;20066;-64
2022/12/14 14:13:48;;;;;;;10.35;5.43;;;;;;;;;;7387152;19;19999;-63
2022/12/14 14:16:20;;;;;;;13.25;5.80;;;;;;;;;;7388476;19;20341;-64
2022/12/14 14:19:00;;;;;;;12.02;5.65;;;;;;;;;;7387720;19;20003;-65
2022/12/14 14:21:51;;;;;;;10.38;5.65;;;;;;;;;;7387553;19;20002;-64
2022/12/14 14:24:16;;;;;;;12.55;5.57;;;;;;;;;;7387189;19;20015;-64
2022/12/14 14:26:56;;;;;;;11.95;6.45;;;;;;;;;;7388709;19;20041;-64
2022/12/14 14:29:29;;;;;;;15.20;6.20;;;;;;;;;;7386792;19;20357;-64
2022/12/14 14:31:57;;;;;;;15.50;5.97;;;;;;;;;;7387761;19;20506;-65
2022/12/14 14:34:32;;;;;;;11.00;5.40;;;;;;;;;;7388101;19;20062;-65
2022/12/14 14:36:58;;;;;;;10.52;5.82;;;;;;;;;;7392969;19;20070;-64
2022/12/14 14:39:36;;;;;;;11.45;5.25;;;;;;;;;;7395117;19;20015;-65
2022/12/14 14:42:04;;;;;;;13.70;6.15;;;;;;;;;;7396781;19;20377;-65
2022/12/14 14:44:39;;;;;;;11.00;5.97;;;;;;;;;;7393940;19;20036;-65
2022/12/14 14:47:28;;;;;;;13.27;5.47;;;;;;;;;;7391398;19;20006;-65
2022/12/14 14:50:14;;;;;;;10.68;4.82;;;;;;;;;;7394664;19;20025;-65
2022/12/14 14:52:42;;;;;;;12.70;5.63;;;;;;;;;;7388322;19;20003;-65
2022/12/14 14:55:37;;;;;;;14.85;6.18;;;;;;;;;;7394849;19;20326;-66
2022/12/14 14:58:04;;;;;;;16.85;6.05;;;;;;;;;;7389617;19;20074;-68
2022/12/14 15:00:38;;;;;;;14.18;5.85;;;;;;;;;;7393547;19;20709;-66
2022/12/14 15:03:06;;;;;;;14.80;6.00;;;;;;;;;;7387583;19;20376;-69
2022/12/14 15:05:34;;;;;;;16.13;6.05;;;;;;;;;;7391883;19;19998;-70
2022/12/14 15:08:01;;;;;;;13.55;6.28;;;;;;;;;;7394822;19;20040;-70
2022/12/14 15:10:40;;;;;;;13.95;6.00;;;;;;;;;;7395017;19;20510;-69
2022/12/14 15:13:13;;;;;;;10.70;5.43;;;;;;;;;;7394328;19;20007;-70
2022/12/14 15:15:43;;;;;;;10.88;5.55;;;;;;;;;;7394603;19;20036;-70
2022/12/14 15:18:29;;;;;;;17.80;6.28;;;;;;;;;;7395031;19;20022;-70
2022/12/14 15:20:54;;;;;;;11.52;5.63;;;;;;;;;;7393463;19;20088;-69